createdAt,value
2018-01-30T00:01:44.448Z,8.34
2018-01-30T00:04:13.540Z,8.33
2018-01-30T00:06:41.840Z,8.32
2018-01-30T00:09:10.165Z,8.31
2018-01-30T00:11:38.473Z,8.29
2018-01-30T00:14:06.775Z,8.30
2018-01-30T00:16:35.129Z,8.28
2018-01-30T00:19:03.473Z,8.27
2018-01-30T00:21:31.805Z,8.28
2018-01-30T00:24:00.128Z,8.22
2018-01-30T00:26:28.433Z,8.19
2018-01-30T00:28:58.403Z,8.15
2018-01-30T00:31:27.614Z,8.07
2018-01-30T00:33:57.671Z,8.01
2018-01-30T00:36:27.907Z,7.97
2018-01-30T00:38:56.659Z,7.88
2018-01-30T00:41:26.857Z,7.79
2018-01-30T00:43:56.991Z,7.76
2018-01-30T00:46:27.978Z,7.72
2018-01-30T00:48:58.167Z,7.66
2018-01-30T00:51:28.213Z,7.65
2018-01-30T00:53:56.541Z,7.64
2018-01-30T00:56:24.857Z,7.59
2018-01-30T00:58:53.189Z,7.58
2018-01-30T01:01:23.106Z,7.56
2018-01-30T01:03:51.436Z,7.52
2018-01-30T01:06:19.874Z,7.51
2018-01-30T01:08:48.215Z,7.48
2018-01-30T01:11:16.521Z,7.48
2018-01-30T01:13:47.493Z,7.46
2018-01-30T01:16:15.881Z,7.45
2018-01-30T01:18:44.215Z,7.44
2018-01-30T01:21:12.464Z,7.43
2018-01-30T01:23:42.398Z,7.44
2018-01-30T01:26:10.760Z,7.42
2018-01-30T01:28:39.453Z,7.42
2018-01-30T01:31:09.521Z,7.38
2018-01-30T01:33:37.900Z,7.40
2018-01-30T01:36:06.225Z,7.40
2018-01-30T01:38:34.560Z,7.40
2018-01-30T01:41:02.889Z,7.40
2018-01-30T01:43:31.222Z,7.38
2018-01-30T01:45:59.595Z,7.39
2018-01-30T01:48:27.928Z,7.36
2018-01-30T01:50:58.098Z,7.35
2018-01-30T01:53:27.343Z,7.35
2018-01-30T01:55:56.416Z,7.35
2018-01-30T01:58:24.714Z,7.33
2018-01-30T02:00:52.988Z,7.33
2018-01-30T02:03:21.306Z,7.32
2018-01-30T02:05:49.686Z,7.32
2018-01-30T02:08:17.998Z,7.29
2018-01-30T02:10:46.378Z,7.29
2018-01-30T02:13:14.682Z,7.27
2018-01-30T02:15:42.996Z,7.25
2018-01-30T02:18:11.320Z,7.24
2018-01-30T02:20:39.635Z,7.23
2018-01-30T02:23:08.728Z,7.22
2018-01-30T02:25:37.466Z,7.19
2018-01-30T02:28:05.885Z,7.18
2018-01-30T02:30:34.906Z,7.15
2018-01-30T02:33:04.116Z,7.15
2018-01-30T02:35:33.154Z,7.13
2018-01-30T02:38:01.488Z,7.13
2018-01-30T02:40:30.503Z,7.11
2018-01-30T02:42:59.545Z,7.09
2018-01-30T02:45:27.819Z,7.07
2018-01-30T02:47:56.149Z,7.06
2018-01-30T02:50:26.464Z,7.06
2018-01-30T02:52:55.670Z,7.07
2018-01-30T02:55:26.606Z,7.08
2018-01-30T02:57:55.034Z,7.08
2018-01-30T03:00:25.716Z,7.08
2018-01-30T03:02:53.976Z,7.09
2018-01-30T03:05:22.306Z,7.11
2018-01-30T03:07:52.210Z,7.11
2018-01-30T03:10:20.566Z,7.11
2018-01-30T03:12:48.956Z,7.10
2018-01-30T03:15:19.954Z,7.07
2018-01-30T03:17:48.290Z,7.07
2018-01-30T03:20:16.618Z,7.07
2018-01-30T03:22:46.515Z,7.08
2018-01-30T03:25:17.473Z,7.09
2018-01-30T03:27:45.809Z,7.09
2018-01-30T03:30:14.119Z,7.09
2018-01-30T03:32:42.475Z,7.10
2018-01-30T03:35:10.775Z,7.11
2018-01-30T03:37:39.934Z,7.11
2018-01-30T03:40:08.531Z,7.12
2018-01-30T03:42:36.810Z,7.11
2018-01-30T03:45:06.006Z,7.12
2018-01-30T03:47:34.308Z,7.14
2018-01-30T03:50:02.793Z,7.14
2018-01-30T03:52:31.206Z,7.12
2018-01-30T03:55:00.245Z,7.13
2018-01-30T03:57:28.562Z,7.15
2018-01-30T03:59:56.914Z,7.15
2018-01-30T04:02:25.243Z,7.15
2018-01-30T04:04:56.163Z,7.14
2018-01-30T04:07:27.067Z,7.14
2018-01-30T04:09:55.570Z,7.14
2018-01-30T04:12:23.829Z,7.15
2018-01-30T04:14:52.215Z,7.15
2018-01-30T04:17:20.576Z,7.14
2018-01-30T04:19:48.870Z,7.15
2018-01-30T04:22:17.148Z,7.15
2018-01-30T04:24:45.445Z,7.15
2018-01-30T04:27:13.889Z,7.13
2018-01-30T04:29:42.246Z,7.10
2018-01-30T04:32:10.539Z,7.10
2018-01-30T04:34:38.825Z,7.08
2018-01-30T04:37:07.231Z,7.05
2018-01-30T04:39:35.562Z,7.04
2018-01-30T04:42:03.995Z,7.04
2018-01-30T04:44:34.182Z,7.03
2018-01-30T04:47:02.521Z,7.03
2018-01-30T04:49:30.815Z,7.05
2018-01-30T04:52:00.953Z,7.05
2018-01-30T04:54:30.139Z,7.06
2018-01-30T04:56:58.497Z,7.07
2018-01-30T04:59:27.553Z,7.08
2018-01-30T05:01:55.883Z,7.09
2018-01-30T05:04:24.989Z,7.10
2018-01-30T05:06:54.937Z,7.11
2018-01-30T05:09:23.271Z,7.12
2018-01-30T05:11:52.518Z,7.11
2018-01-30T05:14:20.823Z,7.12
2018-01-30T05:16:51.713Z,7.13
2018-01-30T05:19:20.048Z,7.12
2018-01-30T05:21:48.363Z,7.12
2018-01-30T05:24:16.644Z,7.13
2018-01-30T05:26:45.733Z,7.13
2018-01-30T05:29:14.017Z,7.10
2018-01-30T05:31:42.335Z,7.10
2018-01-30T05:34:12.349Z,7.08
2018-01-30T05:36:40.681Z,7.05
2018-01-30T05:39:09.022Z,7.07
2018-01-30T05:41:38.981Z,7.07
2018-01-30T05:44:09.946Z,7.02
2018-01-30T05:46:38.352Z,6.61
2018-01-30T05:49:06.829Z,6.41
2018-01-30T05:51:35.177Z,6.24
2018-01-30T05:54:03.531Z,6.20
2018-01-30T05:56:31.843Z,6.18
2018-01-30T05:59:00.929Z,6.10
2018-01-30T06:01:29.247Z,6.02
2018-01-30T06:03:57.613Z,6.01
2018-01-30T06:06:25.939Z,6.05
2018-01-30T06:08:54.259Z,6.06
2018-01-30T06:11:25.257Z,6.05
2018-01-30T06:13:53.758Z,6.05
2018-01-30T06:16:22.161Z,6.05
2018-01-30T06:18:51.589Z,6.05
2018-01-30T06:21:19.907Z,6.02
2018-01-30T06:23:48.200Z,6.04
2018-01-30T06:26:18.197Z,6.06
2018-01-30T06:28:47.085Z,6.05
2018-01-30T06:31:15.503Z,6.04
2018-01-30T06:33:45.708Z,6.02
2018-01-30T06:36:15.842Z,6.02
2018-01-30T06:38:45.949Z,6.04
2018-01-30T06:41:14.313Z,6.01
2018-01-30T06:43:42.585Z,5.99
2018-01-30T06:46:10.881Z,5.96
2018-01-30T06:48:39.295Z,5.96
2018-01-30T06:51:07.615Z,5.92
2018-01-30T06:53:35.990Z,5.88
2018-01-30T06:56:04.275Z,5.90
2018-01-30T06:58:32.587Z,5.89
2018-01-30T07:01:00.867Z,5.90
2018-01-30T07:03:29.213Z,5.89
2018-01-30T07:05:57.542Z,5.89
2018-01-30T07:08:27.602Z,5.91
2018-01-30T07:10:56.262Z,5.89
2018-01-30T07:13:24.620Z,5.91
2018-01-30T07:15:52.941Z,5.90
2018-01-30T07:18:21.360Z,5.89
2018-01-30T07:20:49.644Z,5.93
2018-01-30T07:23:18.711Z,5.95
2018-01-30T07:25:47.104Z,5.95
2018-01-30T07:28:17.814Z,5.94
2018-01-30T07:30:46.419Z,6.01
2018-01-30T07:33:16.650Z,6.01
2018-01-30T07:35:45.124Z,6.04
2018-01-30T07:38:14.095Z,6.05
2018-01-30T07:40:43.253Z,6.07
2018-01-30T07:43:13.252Z,6.09
2018-01-30T07:45:41.924Z,6.10
2018-01-30T07:48:11.042Z,6.15
2018-01-30T07:50:43.299Z,6.18
2018-01-30T07:53:14.770Z,6.17
2018-01-30T07:55:45.394Z,6.17
2018-01-30T07:58:15.010Z,6.16
2018-01-30T08:00:43.470Z,6.19
2018-01-30T08:03:13.743Z,6.19
2018-01-30T08:05:43.034Z,6.24
2018-01-30T08:08:12.230Z,6.27
2018-01-30T08:10:40.574Z,6.30
2018-01-30T08:13:08.888Z,6.32
2018-01-30T08:15:37.988Z,6.35
2018-01-30T08:18:06.284Z,6.38
2018-01-30T08:20:35.666Z,6.43
2018-01-30T08:23:03.976Z,6.48
2018-01-30T08:25:32.446Z,6.47
2018-01-30T08:28:03.362Z,6.52
2018-01-30T08:30:31.740Z,6.53
2018-01-30T08:33:02.666Z,6.55
2018-01-30T08:35:31.066Z,6.57
2018-01-30T08:37:59.427Z,6.57
2018-01-30T08:40:27.761Z,6.61
2018-01-30T08:42:56.226Z,6.64
2018-01-30T08:45:25.336Z,6.68
2018-01-30T08:47:53.701Z,6.71
2018-01-30T08:50:22.048Z,6.76
2018-01-30T08:52:50.370Z,6.79
2018-01-30T08:55:18.814Z,6.87
2018-01-30T08:57:47.359Z,6.93
2018-01-30T09:00:15.654Z,6.97
2018-01-30T09:02:43.940Z,7.00
2018-01-30T09:05:12.279Z,7.02
2018-01-30T09:07:40.633Z,7.05
2018-01-30T09:10:11.980Z,7.08
2018-01-30T09:12:40.309Z,7.12
2018-01-30T09:15:08.613Z,7.15
2018-01-30T09:17:38.542Z,7.19
2018-01-30T09:20:07.153Z,7.21
2018-01-30T09:22:37.163Z,7.19
2018-01-30T09:25:07.182Z,7.23
2018-01-30T09:27:35.586Z,7.24
2018-01-30T09:30:03.945Z,7.21
2018-01-30T09:32:33.841Z,7.22
2018-01-30T09:35:03.996Z,7.26
2018-01-30T09:37:32.388Z,7.28
2018-01-30T09:40:00.686Z,7.29
2018-01-30T09:42:29.232Z,7.34
2018-01-30T09:44:57.655Z,7.36
2018-01-30T09:47:25.982Z,7.37
2018-01-30T09:49:54.325Z,7.39
2018-01-30T09:52:22.664Z,7.35
2018-01-30T09:54:51.958Z,7.37
2018-01-30T09:57:20.324Z,7.36
2018-01-30T09:59:49.688Z,7.35
2018-01-30T10:02:18.149Z,7.32
2018-01-30T10:04:46.569Z,7.29
2018-01-30T10:07:15.011Z,7.27
2018-01-30T10:09:43.524Z,7.27
2018-01-30T10:12:11.809Z,7.22
2018-01-30T10:14:40.334Z,7.21
2018-01-30T10:17:08.687Z,7.22
2018-01-30T10:19:37.770Z,7.23
2018-01-30T10:22:07.983Z,7.26
2018-01-30T10:24:36.381Z,7.25
2018-01-30T10:27:06.776Z,7.27
2018-01-30T10:29:37.554Z,7.27
2018-01-30T10:32:05.934Z,7.24
2018-01-30T10:34:34.713Z,7.27
2018-01-30T10:37:03.129Z,7.27
2018-01-30T10:39:31.569Z,7.27
2018-01-30T10:42:00.012Z,7.27
2018-01-30T10:44:28.347Z,7.27
2018-01-30T10:46:56.667Z,7.30
2018-01-30T10:49:25.109Z,7.28
2018-01-30T10:51:53.451Z,7.29
2018-01-30T10:54:21.792Z,7.33
2018-01-30T10:56:50.135Z,7.35
2018-01-30T10:59:18.477Z,7.35
2018-01-30T11:01:46.799Z,7.36
2018-01-30T11:04:15.897Z,7.33
2018-01-30T11:06:44.332Z,7.26
2018-01-30T11:09:12.737Z,7.21
2018-01-30T11:11:41.216Z,7.18
2018-01-30T11:14:12.077Z,7.21
2018-01-30T11:16:42.635Z,7.27
2018-01-30T11:19:11.113Z,7.34
2018-01-30T11:21:42.275Z,7.40
2018-01-30T11:24:10.849Z,7.48
2018-01-30T11:26:40.810Z,7.51
2018-01-30T11:29:09.455Z,7.55
2018-01-30T11:31:38.090Z,7.60
2018-01-30T11:34:06.515Z,7.63
2018-01-30T11:36:34.889Z,7.70
2018-01-30T11:39:03.189Z,7.80
2018-01-30T11:41:31.524Z,7.87
2018-01-30T11:43:59.791Z,7.87
2018-01-30T11:46:28.179Z,7.77
2018-01-30T11:48:56.524Z,7.82
2018-01-30T11:51:24.885Z,7.84
2018-01-30T11:53:53.213Z,7.89
2018-01-30T11:56:22.817Z,7.89
2018-01-30T11:58:52.456Z,7.96
2018-01-30T12:01:22.422Z,7.97
2018-01-30T12:03:50.805Z,8.05
2018-01-30T12:06:19.163Z,8.00
2018-01-30T12:08:47.463Z,8.02
2018-01-30T12:11:16.049Z,8.01
2018-01-30T12:13:44.869Z,8.00
2018-01-30T12:16:13.965Z,7.93
2018-01-30T12:18:42.311Z,8.07
2018-01-30T12:21:11.373Z,8.07
2018-01-30T12:23:39.717Z,8.16
2018-01-30T12:26:08.015Z,8.11
2018-01-30T12:28:36.459Z,8.12
2018-01-30T12:31:04.814Z,8.21
2018-01-30T12:33:33.325Z,8.17
2018-01-30T12:36:03.456Z,8.12
2018-01-30T12:38:32.001Z,8.05
2018-01-30T12:41:00.370Z,8.03
2018-01-30T12:43:28.747Z,8.07
2018-01-30T12:45:57.060Z,8.09
2018-01-30T12:48:25.440Z,8.04
2018-01-30T12:50:56.391Z,8.04
2018-01-30T12:53:24.756Z,7.98
2018-01-30T12:55:53.096Z,7.96
2018-01-30T12:58:21.445Z,7.95
2018-01-30T13:00:52.397Z,8.00
2018-01-30T13:03:21.068Z,8.05
2018-01-30T13:05:49.446Z,8.08
2018-01-30T13:08:17.798Z,8.18
2018-01-30T13:10:46.172Z,8.19
2018-01-30T13:13:14.552Z,8.25
2018-01-30T13:15:42.927Z,8.20
2018-01-30T13:18:11.421Z,8.11
2018-01-30T13:20:40.564Z,8.13
2018-01-30T13:23:09.121Z,8.07
2018-01-30T13:25:39.186Z,8.04
2018-01-30T13:28:07.609Z,8.03
2018-01-30T13:30:35.938Z,8.04
2018-01-30T13:33:04.296Z,8.04
2018-01-30T13:35:32.736Z,8.02
2018-01-30T13:38:01.127Z,7.97
2018-01-30T13:40:30.246Z,7.95
2018-01-30T13:42:58.572Z,7.95
2018-01-30T13:45:26.918Z,8.00
2018-01-30T13:47:57.947Z,8.00
2018-01-30T13:50:26.418Z,8.01
2018-01-30T13:52:54.929Z,8.04
2018-01-30T13:55:26.448Z,7.98
2018-01-30T13:57:57.184Z,8.00
2018-01-30T14:00:28.138Z,8.04
2018-01-30T14:02:58.612Z,8.04
2018-01-30T14:05:26.998Z,8.10
2018-01-30T14:07:55.336Z,8.12
2018-01-30T14:10:23.816Z,8.10
2018-01-30T14:12:52.885Z,8.13
2018-01-30T14:15:22.837Z,8.15
2018-01-30T14:17:52.940Z,8.11
2018-01-30T14:20:21.332Z,8.07
2018-01-30T14:22:49.695Z,8.08
2018-01-30T14:25:18.815Z,8.08
2018-01-30T14:27:47.176Z,8.04
2018-01-30T14:30:15.521Z,7.98
2018-01-30T14:32:44.138Z,8.03
2018-01-30T14:35:12.595Z,8.02
2018-01-30T14:37:41.000Z,8.03
2018-01-30T14:40:09.346Z,8.02
2018-01-30T14:42:38.509Z,7.99
2018-01-30T14:45:06.886Z,7.97
2018-01-30T14:47:35.362Z,7.97
2018-01-30T14:50:04.465Z,7.95
2018-01-30T14:52:32.956Z,7.92
2018-01-30T14:55:01.299Z,7.89
2018-01-30T14:57:31.564Z,7.85
2018-01-30T15:00:02.453Z,7.83
2018-01-30T15:02:30.797Z,7.79
2018-01-30T15:04:59.146Z,7.73
2018-01-30T15:07:27.484Z,7.76
2018-01-30T15:09:56.563Z,7.77
2018-01-30T15:12:26.653Z,7.72
2018-01-30T15:14:55.114Z,7.69
2018-01-30T15:17:23.794Z,7.66
2018-01-30T15:19:52.239Z,7.64
2018-01-30T15:22:20.615Z,7.61
2018-01-30T15:24:49.166Z,7.59
2018-01-30T15:27:17.512Z,7.57
2018-01-30T15:29:46.066Z,7.53
2018-01-30T15:32:14.650Z,7.47
2018-01-30T15:34:43.019Z,7.45
2018-01-30T15:37:11.401Z,7.42
2018-01-30T15:39:41.549Z,7.39
2018-01-30T15:42:10.728Z,7.35
2018-01-30T15:47:31.842Z,7.25
2018-01-30T15:50:00.241Z,7.22
2018-01-30T15:52:28.604Z,7.19
2018-01-30T15:54:58.065Z,7.15
2018-01-30T15:57:27.198Z,7.12
2018-01-30T15:59:55.578Z,7.08
2018-01-30T16:02:23.922Z,7.05
2018-01-30T16:04:52.331Z,7.01
2018-01-30T16:07:20.683Z,6.97
2018-01-30T16:09:48.954Z,6.94
2018-01-30T16:12:17.434Z,6.88
2018-01-30T16:14:45.778Z,6.83
2018-01-30T16:17:14.229Z,6.78
2018-01-30T16:19:42.678Z,6.72
2018-01-30T16:22:11.039Z,6.66
2018-01-30T16:24:39.440Z,6.62
2018-01-30T16:27:07.908Z,6.57
2018-01-30T16:29:37.875Z,6.53
2018-01-30T16:32:06.282Z,6.49
2018-01-30T16:34:34.631Z,6.43
2018-01-30T16:37:02.998Z,6.37
2018-01-30T16:39:31.382Z,6.33
2018-01-30T16:42:01.396Z,6.28
2018-01-30T16:44:32.458Z,6.23
2018-01-30T16:47:02.457Z,6.18
2018-01-30T16:49:31.747Z,6.13
2018-01-30T16:52:00.251Z,6.09
2018-01-30T16:54:28.625Z,6.04
2018-01-30T16:56:56.987Z,5.99
2018-01-30T16:59:26.096Z,5.96
2018-01-30T17:01:55.793Z,5.89
2018-01-30T17:04:25.554Z,5.83
2018-01-30T17:06:57.551Z,5.80
2018-01-30T17:09:26.179Z,5.76
2018-01-30T17:11:56.243Z,5.72
2018-01-30T17:14:27.543Z,5.66
2018-01-30T17:16:56.006Z,5.60
2018-01-30T17:19:24.406Z,5.55
2018-01-30T17:21:52.902Z,5.51
2018-01-30T17:24:21.348Z,5.47
2018-01-30T17:26:49.712Z,5.41
2018-01-30T17:29:21.700Z,5.36
2018-01-30T17:31:51.428Z,5.31
2018-01-30T17:34:22.480Z,5.23
2018-01-30T17:36:50.865Z,5.19
2018-01-30T17:39:19.284Z,5.14
2018-01-30T17:41:51.519Z,5.09
2018-01-30T17:44:24.392Z,5.02
2018-01-30T17:46:59.020Z,4.97
2018-01-30T17:49:34.474Z,4.95
2018-01-30T17:52:06.860Z,4.93
2018-01-30T17:54:35.545Z,4.90
2018-01-30T17:57:03.937Z,4.85
2018-01-30T17:59:32.645Z,4.81
2018-01-30T18:02:07.203Z,4.78
2018-01-30T18:04:35.674Z,4.78
2018-01-30T18:07:04.065Z,4.76
2018-01-30T18:09:32.450Z,4.72
2018-01-30T18:12:01.004Z,4.66
2018-01-30T18:14:30.097Z,4.59
2018-01-30T18:16:58.576Z,4.56
2018-01-30T18:19:26.972Z,4.55
2018-01-30T18:21:57.162Z,4.53
2018-01-30T18:24:26.881Z,4.51
2018-01-30T18:26:55.402Z,4.48
2018-01-30T18:29:23.771Z,4.47
2018-01-30T18:31:52.190Z,4.45
2018-01-30T18:34:21.423Z,4.46
2018-01-30T18:36:49.789Z,4.46
2018-01-30T18:39:18.167Z,4.42
2018-01-30T18:41:49.446Z,4.43
2018-01-30T18:44:19.561Z,4.43
2018-01-30T18:46:48.240Z,4.42
2018-01-30T18:49:16.822Z,4.42
2018-01-30T18:51:45.954Z,4.38
2018-01-30T18:54:14.379Z,4.36
2018-01-30T18:56:46.442Z,4.32
2018-01-30T18:59:17.538Z,4.26
2018-01-30T19:01:49.081Z,4.19
2018-01-30T19:04:17.594Z,4.08
2018-01-30T19:06:46.141Z,4.03
2018-01-30T19:09:14.586Z,3.98
2018-01-30T19:11:44.693Z,3.93
2018-01-30T19:14:13.133Z,3.90
2018-01-30T19:16:43.464Z,3.90
2018-01-30T19:19:12.798Z,3.90
2018-01-30T19:21:41.397Z,3.86
2018-01-30T19:24:10.341Z,3.84
2018-01-30T19:26:39.068Z,3.80
2018-01-30T19:29:07.589Z,3.76
2018-01-30T19:31:36.080Z,3.75
2018-01-30T19:34:04.818Z,3.71
2018-01-30T19:36:34.876Z,3.67
2018-01-30T19:39:03.424Z,3.62
2018-01-30T19:41:31.944Z,3.57
2018-01-30T19:44:01.101Z,3.56
2018-01-30T19:46:29.716Z,3.47
2018-01-30T19:48:58.281Z,3.44
2018-01-30T19:51:26.870Z,3.43
2018-01-30T19:53:57.184Z,3.40
2018-01-30T19:56:25.895Z,3.37
2018-01-30T19:58:56.407Z,3.32
2018-01-30T20:01:26.738Z,3.26
2018-01-30T20:03:56.256Z,3.24
2018-01-30T20:06:24.802Z,3.23
2018-01-30T20:08:55.541Z,3.25
2018-01-30T20:11:24.045Z,3.25
2018-01-30T20:13:52.740Z,3.23
2018-01-30T20:16:21.418Z,3.23
2018-01-30T20:18:50.013Z,3.21
2018-01-30T20:21:18.817Z,3.17
2018-01-30T20:23:49.005Z,3.15
2018-01-30T20:26:18.243Z,3.14
2018-01-30T20:28:46.829Z,3.12
2018-01-30T20:31:16.335Z,2.98
2018-01-30T20:33:49.212Z,2.91
2018-01-30T20:36:17.796Z,2.94
2018-01-30T20:38:49.307Z,2.94
2018-01-30T20:41:17.945Z,2.90
2018-01-30T20:43:46.516Z,2.85
2018-01-30T20:46:15.109Z,2.79
2018-01-30T20:48:43.679Z,2.78
2018-01-30T20:51:12.279Z,2.76
2018-01-30T20:53:40.868Z,2.72
2018-01-30T20:56:09.457Z,2.65
2018-01-30T20:58:38.675Z,2.61
2018-01-30T21:01:07.436Z,2.56
2018-01-30T21:03:37.663Z,2.49
2018-01-30T21:06:08.030Z,2.47
2018-01-30T21:08:37.455Z,2.53
2018-01-30T21:11:06.024Z,2.56
2018-01-30T21:13:35.185Z,2.54
2018-01-30T21:16:06.022Z,2.54
2018-01-30T21:18:34.427Z,2.52
2018-01-30T21:21:02.955Z,2.54
2018-01-30T21:23:32.289Z,2.56
2018-01-30T21:26:01.892Z,2.54
2018-01-30T21:28:31.198Z,2.56
2018-01-30T21:31:00.306Z,2.58
2018-01-30T21:33:28.954Z,2.62
2018-01-30T21:35:57.325Z,2.64
2018-01-30T21:38:25.729Z,2.62
2018-01-30T21:40:56.873Z,2.56
2018-01-30T21:43:25.225Z,2.55
2018-01-30T21:45:53.539Z,2.61
2018-01-30T21:48:21.982Z,2.68
2018-01-30T21:50:50.392Z,2.71
2018-01-30T21:53:20.507Z,2.74
2018-01-30T21:55:51.476Z,2.77
2018-01-30T21:58:21.818Z,2.78
2018-01-30T22:00:50.928Z,2.75
2018-01-30T22:03:21.033Z,2.66
2018-01-30T22:05:50.159Z,2.74
2018-01-30T22:08:20.633Z,2.80
2018-01-30T22:10:49.666Z,2.85
2018-01-30T22:13:18.201Z,2.86
2018-01-30T22:15:47.336Z,2.88
2018-01-30T22:18:15.727Z,2.85
2018-01-30T22:20:47.146Z,2.84
2018-01-30T22:23:16.572Z,2.84
2018-01-30T22:25:44.934Z,2.87
2018-01-30T22:28:16.077Z,2.95
2018-01-30T22:30:44.446Z,2.99
2018-01-30T22:33:12.801Z,3.05
2018-01-30T22:35:41.208Z,3.06
2018-01-30T22:38:09.517Z,3.11
2018-01-30T22:40:40.518Z,3.13
2018-01-30T22:43:08.837Z,3.11
2018-01-30T22:45:37.213Z,3.13
